Tilden, TX

7:31 AM CST on March 06, 2015 (GMT -0600)
Cotulla-La Salle County | Change Station
CLOSE
Current Station
Airport
Location: Cotulla,
Elevation: 476 ft
Nearby Weather Stations
Active Advisory: Special Statement Active Notice: Public Information Statement

Elev 476 ft 28.46 °N, 99.22 °W | Updated 38 minutes ago

Mostly Cloudy
Mostly Cloudy
33 °F
Feels Like 29 °F
N
5
Wind Variable Wind from ENE

Today
High -- | Low -- °F
--% Chance of Precip.
Yesterday
High -- | Low -- °F
Precip. -- in
6:54 AM 6:37 PM
Waxing Gibbous, 99% visible
Pressure 30.59 in
Visibility 10.0 miles
Clouds Clear
Windchill 29 °F
Dew Point 25 °F
Humidity 72%
Rainfall 0.00 in
Snow Depth Not available.
UV 0 out of 12
Pollen 7.70 out of 12
Air Quality Not available.
Flu Activity Not available.
METAR KCOT 061253Z AUTO 06004KT 10SM CLR 01/M04 A3059 RMK AO2 SLP359 T00061039

More Conditions Fewer Conditions

Pressure 30.59 in
Visibility 10.0 miles
Clouds Clear
Windchill 29 °F
Dew Point 25 °F
Humidity 72%
Rainfall 0.00 in
Snow Depth Not available.
UV 0 out of 12
Pollen 7.70 out of 12
Air Quality Not available.
Flu Activity Not available.
METAR KCOT 061253Z AUTO 06004KT 10SM CLR 01/M04 A3059 RMK AO2 SLP359 T00061039

More Conditions Fewer Conditions

10-Day Weather Forecast

Almanac

Astronomy

Mar. 06, 2015 Rise Set
Actual Time
Civil Twilight
Nautical Twilight
Astronomical Twilight
Moon
Length of Visible Light
Length of Day
Tomorrow will be .
, % of the Moon is Illuminated

Today's Extremes

State Highs State Lows

Community

WunderPhotos

Upload Photos

1,803,266 photos uploaded!

WunderBlogs® & News

Nearby

Air Quality

  Air Quality AQ Index Pollutant
Not available.

Snow Depth

Station Depth Elevation

Earthquake Activity

City Distance Mag. Time & Date
Minimum magnitude displayed is 2.5.

Coastal Water Temperatures

Place Temperature

Nearby Weather Stations

Special Statement
Statement as of 10:38 PM CST on March 05, 2015

... Freeze warning in effect for the northern sections of south
Texas early Friday morning...

... Near freezing temperatures expected early Friday morning over
the remainder of south Texas...

Cold temperatures are expected over south Texas tonight through
early Friday morning due to an Arctic air mass. A freeze warning
is in effect for the northern counties of LaSalle... McMullen...
Live Oak... Bee... Goliad... and Victoria.

For the remainder of south Texas... minimum temperatures over the
inland areas are expected to range generally from 33 to 36 degrees
with a few locations experiencing freezing conditions for less
than 2 hours early Friday morning. Minimum readings from the mid
to upper 30s are expected along the immediate coast.

Residents in south Texas should take action to protect temperature-
sensitive plants and animals. Stay tuned to NOAA Weather Radio...
commercial radio or other media outlets for the latest weather
information.


87